createdAt,value
2017-07-14T00:00:00.944Z,1008.2
2017-07-14T00:10:10.755Z,1008.1
2017-07-14T00:20:20.605Z,1008.1
2017-07-14T00:30:30.413Z,1007.9
2017-07-14T00:40:40.245Z,1007.9
2017-07-14T00:50:50.211Z,1007.8
2017-07-14T01:01:00.207Z,1007.6
2017-07-14T01:11:10.167Z,1007.4
2017-07-14T01:21:20.106Z,1007.5
2017-07-14T01:31:30.002Z,1007.5
2017-07-14T01:41:39.947Z,1007.3
2017-07-14T01:51:50.003Z,1007.2
2017-07-14T02:02:00.089Z,1007.2
2017-07-14T02:12:10.159Z,1007.1
2017-07-14T02:22:20.181Z,1006.9
2017-07-14T02:32:30.145Z,1006.9
2017-07-14T02:42:40.138Z,1007
2017-07-14T02:52:50.088Z,1006.9
2017-07-14T03:02:59.993Z,1006.8
2017-07-14T03:13:10.015Z,1006.8
2017-07-14T03:23:20.073Z,1006.7
2017-07-14T03:33:30.189Z,1006.6
2017-07-14T03:43:40.339Z,1006.6
2017-07-14T03:53:50.698Z,1006.7
2017-07-14T04:04:00.771Z,1006.8
2017-07-14T04:14:10.972Z,1006.7
2017-07-14T04:24:20.799Z,1006.6
2017-07-14T04:34:30.708Z,1006.7
2017-07-14T04:44:40.329Z,1006.6
2017-07-14T04:54:49.678Z,1006.6
2017-07-14T05:04:58.998Z,1006.5
2017-07-14T05:15:08.283Z,1006.5
2017-07-14T05:25:17.426Z,1006.6
2017-07-14T05:35:26.369Z,1006.4
2017-07-14T05:45:35.151Z,1006.4
2017-07-14T05:55:43.773Z,1006.2
2017-07-14T06:05:52.536Z,1006.3
2017-07-14T06:16:00.694Z,1006.3
2017-07-14T06:26:09.098Z,1006.3
2017-07-14T06:36:17.387Z,1006.3
2017-07-14T06:46:25.521Z,1006.3
2017-07-14T06:56:33.544Z,1006.2
2017-07-14T07:06:41.508Z,1006.3
2017-07-14T07:16:49.385Z,1006.2
2017-07-14T07:26:56.943Z,1006.2
2017-07-14T07:37:04.483Z,1006.2
2017-07-14T07:47:12.100Z,1006.2
2017-07-14T07:57:19.662Z,1006.3
2017-07-14T08:07:27.181Z,1006.3
2017-07-14T08:17:34.508Z,1006.2
2017-07-14T08:27:42.009Z,1006.1
2017-07-14T08:37:49.834Z,1006.1
2017-07-14T08:47:57.521Z,1006
2017-07-14T08:58:04.894Z,1006
2017-07-14T09:08:12.429Z,1006
2017-07-14T09:18:19.888Z,1006
2017-07-14T09:28:27.194Z,1005.9
2017-07-14T09:38:34.346Z,1005.9
2017-07-14T09:48:41.706Z,1005.9
2017-07-14T09:58:48.991Z,1005.8
2017-07-14T10:08:56.183Z,1006
2017-07-14T10:19:03.304Z,1005.9
2017-07-14T10:29:10.433Z,1005.9
2017-07-14T10:39:17.875Z,1005.8
2017-07-14T10:49:25.501Z,1006
2017-07-14T10:59:33.037Z,1005.8
2017-07-14T11:09:40.565Z,1005.9
2017-07-14T11:19:47.989Z,1005.9
2017-07-14T11:29:55.658Z,1005.7
2017-07-14T11:40:03.343Z,1005.8
2017-07-14T11:50:11.245Z,1005.7
2017-07-14T12:00:19.240Z,1005.7
2017-07-14T12:10:27.288Z,1005.7
2017-07-14T12:20:35.208Z,1005.7
2017-07-14T12:30:43.157Z,1005.8
2017-07-14T12:40:51.352Z,1005.9
2017-07-14T12:50:59.686Z,1005.6
2017-07-14T13:01:08.029Z,1005.7
2017-07-14T13:11:16.241Z,1005.6
2017-07-14T13:21:24.154Z,1005.5
2017-07-14T13:31:31.902Z,1005.4
2017-07-14T13:41:39.771Z,1005.5
2017-07-14T13:51:47.903Z,1005.5
2017-07-14T14:01:56.162Z,1005.6
2017-07-14T14:12:04.565Z,1005.7
2017-07-14T14:22:12.982Z,1005.8
2017-07-14T14:28:41.196Z,1006
2017-07-14T14:29:24.086Z,1005.9
2017-07-14T14:33:06.498Z,1006
2017-07-14T14:33:28.785Z,1005.7
2017-07-14T14:34:04.942Z,1006
2017-07-14T14:34:32.106Z,1005.8
2017-07-14T14:34:50.485Z,1005.8
2017-07-14T14:43:02.879Z,1005.8
